Palmyra, Nebraska
Current Conditions -  °F | °C
As of 2:54 PM on Sunday 23 Nov 2014 (Local Time) from KLNK Reporting Station
Overcast Overcast  
Wind Chill: 36°   Ceiling: 7000
Heat Index: 43°   Visibility: 10mi
Dew Point: 36°   Wind: 14mph
Humidity: 76%   Direction: 340°NNW
Pressure: 29.53"   Gusts: NA
Location:  40.7°N, 96.39°W
Report Text: KLNK 232054Z 34012KT 10SM SCT060 OVC070 06/02 A2953 RMK AO2 PK WND 35033/1956 RAB01E36 SLP002 P0000 60000 T00610022 53008
Loading
Personal Weather Stations






























Interactive Weather Map New forecast layout! Learn more

10-Day Weather Forecast

Advertisements
Track Severe Weather on mobile